sensor_id;sensor_type;location;lat;lon;timestamp;P1;durP1;ratioP1;P2;durP2;ratioP2
21010;SDS011;10663;42.714;23.274;2023-02-28T00:00:27;32.05;;;21.02;;
21010;SDS011;10663;42.714;23.274;2023-02-28T00:01:58;30.65;;;20.02;;
21010;SDS011;10663;42.714;23.274;2023-02-28T00:03:29;29.05;;;20.40;;
21010;SDS011;10663;42.714;23.274;2023-02-28T00:05:00;29.67;;;20.52;;
21010;SDS011;10663;42.714;23.274;2023-02-28T00:06:31;31.25;;;21.17;;
21010;SDS011;10663;42.714;23.274;2023-02-28T00:08:02;29.65;;;21.55;;
21010;SDS011;10663;42.714;23.274;2023-02-28T00:09:35;32.42;;;22.35;;
21010;SDS011;10663;42.714;23.274;2023-02-28T00:52:01;41.67;;;25.58;;
21010;SDS011;10663;42.714;23.274;2023-02-28T00:53:33;37.35;;;24.77;;
21010;SDS011;10663;42.714;23.274;2023-02-28T00:55:04;40.28;;;25.80;;
21010;SDS011;10663;42.714;23.274;2023-02-28T00:56:35;37.10;;;24.95;;
21010;SDS011;10663;42.714;23.274;2023-02-28T00:58:06;34.95;;;23.98;;
21010;SDS011;10663;42.714;23.274;2023-02-28T00:59:37;34.80;;;23.42;;
21010;SDS011;10663;42.714;23.274;2023-02-28T01:01:10;32.20;;;22.33;;
21010;SDS011;10663;42.714;23.274;2023-02-28T01:02:42;35.33;;;21.35;;
21010;SDS011;10663;42.714;23.274;2023-02-28T01:04:13;35.07;;;23.63;;
21010;SDS011;10663;42.714;23.274;2023-02-28T01:05:45;34.45;;;22.63;;
21010;SDS011;10663;42.714;23.274;2023-02-28T01:07:17;34.30;;;22.47;;
21010;SDS011;10663;42.714;23.274;2023-02-28T01:08:48;37.07;;;24.20;;
21010;SDS011;10663;42.714;23.274;2023-02-28T01:10:19;33.50;;;22.35;;
21010;SDS011;10663;42.714;23.274;2023-02-28T01:11:51;32.28;;;22.67;;
21010;SDS011;10663;42.714;23.274;2023-02-28T01:13:22;34.45;;;21.83;;
21010;SDS011;10663;42.714;23.274;2023-02-28T01:14:53;31.83;;;21.25;;
21010;SDS011;10663;42.714;23.274;2023-02-28T01:16:26;38.28;;;23.50;;
21010;SDS011;10663;42.714;23.274;2023-02-28T01:17:57;35.20;;;22.00;;
21010;SDS011;10663;42.714;23.274;2023-02-28T01:19:29;33.03;;;21.83;;
21010;SDS011;10663;42.714;23.274;2023-02-28T01:21:19;36.13;;;22.20;;
21010;SDS011;10663;42.714;23.274;2023-02-28T01:22:51;29.23;;;21.20;;
21010;SDS011;10663;42.714;23.274;2023-02-28T01:24:21;33.42;;;21.88;;
21010;SDS011;10663;42.714;23.274;2023-02-28T01:25:52;31.30;;;21.10;;
21010;SDS011;10663;42.714;23.274;2023-02-28T01:27:23;34.37;;;21.30;;
21010;SDS011;10663;42.714;23.274;2023-02-28T01:28:54;29.65;;;20.15;;
21010;SDS011;10663;42.714;23.274;2023-02-28T01:30:25;32.58;;;21.27;;
21010;SDS011;10663;42.714;23.274;2023-02-28T01:31:56;29.60;;;21.23;;
21010;SDS011;10663;42.714;23.274;2023-02-28T01:33:27;32.35;;;21.10;;
21010;SDS011;10663;42.714;23.274;2023-02-28T01:34:58;29.27;;;20.02;;
21010;SDS011;10663;42.714;23.274;2023-02-28T01:36:29;28.17;;;19.30;;
21010;SDS011;10663;42.714;23.274;2023-02-28T01:38:01;30.25;;;19.52;;
21010;SDS011;10663;42.714;23.274;2023-02-28T01:39:41;33.78;;;19.80;;
21010;SDS011;10663;42.714;23.274;2023-02-28T01:41:34;28.38;;;18.80;;
21010;SDS011;10663;42.714;23.274;2023-02-28T01:43:09;30.83;;;20.40;;
21010;SDS011;10663;42.714;23.274;2023-02-28T01:45:00;30.83;;;20.17;;
21010;SDS011;10663;42.714;23.274;2023-02-28T01:46:51;30.35;;;19.98;;
21010;SDS011;10663;42.714;23.274;2023-02-28T01:48:23;30.85;;;20.35;;
21010;SDS011;10663;42.714;23.274;2023-02-28T01:49:58;29.60;;;17.63;;
21010;SDS011;10663;42.714;23.274;2023-02-28T01:51:33;28.80;;;18.73;;
21010;SDS011;10663;42.714;23.274;2023-02-28T01:53:18;25.47;;;17.93;;
21010;SDS011;10663;42.714;23.274;2023-02-28T01:54:54;26.42;;;17.52;;
21010;SDS011;10663;42.714;23.274;2023-02-28T01:56:28;26.17;;;17.88;;
21010;SDS011;10663;42.714;23.274;2023-02-28T01:58:04;29.73;;;18.45;;
21010;SDS011;10663;42.714;23.274;2023-02-28T01:59:43;28.65;;;17.73;;
21010;SDS011;10663;42.714;23.274;2023-02-28T02:01:19;28.65;;;18.20;;
21010;SDS011;10663;42.714;23.274;2023-02-28T02:02:54;26.45;;;17.85;;
21010;SDS011;10663;42.714;23.274;2023-02-28T02:04:32;25.77;;;17.48;;
21010;SDS011;10663;42.714;23.274;2023-02-28T02:06:09;27.25;;;18.90;;
21010;SDS011;10663;42.714;23.274;2023-02-28T02:07:41;32.97;;;21.30;;
21010;SDS011;10663;42.714;23.274;2023-02-28T02:09:13;35.97;;;22.58;;
21010;SDS011;10663;42.714;23.274;2023-02-28T02:10:45;33.03;;;20.90;;
21010;SDS011;10663;42.714;23.274;2023-02-28T02:17:38;34.42;;;21.65;;
21010;SDS011;10663;42.714;23.274;2023-02-28T02:24:44;40.13;;;24.27;;
21010;SDS011;10663;42.714;23.274;2023-02-28T02:35:19;37.78;;;23.60;;
21010;SDS011;10663;42.714;23.274;2023-02-28T02:37:17;40.95;;;24.33;;
21010;SDS011;10663;42.714;23.274;2023-02-28T02:39:42;38.22;;;23.63;;
21010;SDS011;10663;42.714;23.274;2023-02-28T02:43:13;40.23;;;22.93;;
21010;SDS011;10663;42.714;23.274;2023-02-28T02:44:50;37.22;;;23.20;;
21010;SDS011;10663;42.714;23.274;2023-02-28T02:48:10;41.47;;;26.33;;
21010;SDS011;10663;42.714;23.274;2023-02-28T02:49:46;39.13;;;25.20;;
21010;SDS011;10663;42.714;23.274;2023-02-28T02:51:21;41.90;;;24.27;;
21010;SDS011;10663;42.714;23.274;2023-02-28T02:52:56;41.47;;;25.50;;
21010;SDS011;10663;42.714;23.274;2023-02-28T02:54:36;43.13;;;27.48;;
21010;SDS011;10663;42.714;23.274;2023-02-28T02:56:09;41.60;;;26.05;;
21010;SDS011;10663;42.714;23.274;2023-02-28T02:57:45;46.97;;;30.60;;
21010;SDS011;10663;42.714;23.274;2023-02-28T02:59:20;46.30;;;27.40;;
21010;SDS011;10663;42.714;23.274;2023-02-28T03:00:55;43.15;;;25.60;;
21010;SDS011;10663;42.714;23.274;2023-02-28T03:02:30;42.42;;;27.20;;
21010;SDS011;10663;42.714;23.274;2023-02-28T03:04:09;41.97;;;25.58;;
21010;SDS011;10663;42.714;23.274;2023-02-28T03:05:45;42.67;;;26.70;;
21010;SDS011;10663;42.714;23.274;2023-02-28T03:07:18;42.88;;;27.23;;
21010;SDS011;10663;42.714;23.274;2023-02-28T03:08:49;44.55;;;26.88;;
21010;SDS011;10663;42.714;23.274;2023-02-28T03:10:30;41.85;;;25.23;;
21010;SDS011;10663;42.714;23.274;2023-02-28T03:12:12;40.88;;;25.48;;
21010;SDS011;10663;42.714;23.274;2023-02-28T03:15:46;40.00;;;23.92;;
21010;SDS011;10663;42.714;23.274;2023-02-28T03:23:33;42.67;;;25.73;;
21010;SDS011;10663;42.714;23.274;2023-02-28T03:25:31;45.57;;;26.20;;
21010;SDS011;10663;42.714;23.274;2023-02-28T03:27:09;42.03;;;26.75;;
21010;SDS011;10663;42.714;23.274;2023-02-28T03:28:45;45.67;;;27.88;;
21010;SDS011;10663;42.714;23.274;2023-02-28T03:30:41;47.03;;;28.58;;
21010;SDS011;10663;42.714;23.274;2023-02-28T03:32:23;50.28;;;29.75;;
21010;SDS011;10663;42.714;23.274;2023-02-28T03:36:02;52.70;;;30.67;;
21010;SDS011;10663;42.714;23.274;2023-02-28T03:37:38;49.83;;;29.02;;
21010;SDS011;10663;42.714;23.274;2023-02-28T03:39:31;49.53;;;29.60;;
21010;SDS011;10663;42.714;23.274;2023-02-28T03:41:18;51.50;;;30.40;;
21010;SDS011;10663;42.714;23.274;2023-02-28T03:42:54;48.85;;;28.42;;
21010;SDS011;10663;42.714;23.274;2023-02-28T03:44:34;47.28;;;30.98;;
21010;SDS011;10663;42.714;23.274;2023-02-28T03:46:12;46.53;;;28.27;;
21010;SDS011;10663;42.714;23.274;2023-02-28T03:47:55;47.63;;;27.20;;
21010;SDS011;10663;42.714;23.274;2023-02-28T03:49:35;41.60;;;26.95;;
21010;SDS011;10663;42.714;23.274;2023-02-28T03:51:15;42.55;;;26.63;;
21010;SDS011;10663;42.714;23.274;2023-02-28T03:52:51;42.72;;;26.50;;
21010;SDS011;10663;42.714;23.274;2023-02-28T03:54:31;40.78;;;26.25;;
21010;SDS011;10663;42.714;23.274;2023-02-28T03:56:18;41.25;;;24.10;;
21010;SDS011;10663;42.714;23.274;2023-02-28T03:59:53;36.22;;;22.30;;
21010;SDS011;10663;42.714;23.274;2023-02-28T04:01:37;35.92;;;23.27;;
21010;SDS011;10663;42.714;23.274;2023-02-28T04:03:13;33.67;;;22.48;;
21010;SDS011;10663;42.714;23.274;2023-02-28T04:04:44;31.95;;;21.13;;
21010;SDS011;10663;42.714;23.274;2023-02-28T04:06:19;30.08;;;21.08;;
21010;SDS011;10663;42.714;23.274;2023-02-28T04:07:52;32.20;;;22.67;;
21010;SDS011;10663;42.714;23.274;2023-02-28T04:09:25;33.28;;;21.45;;
21010;SDS011;10663;42.714;23.274;2023-02-28T04:11:12;39.03;;;24.30;;
21010;SDS011;10663;42.714;23.274;2023-02-28T04:12:50;40.95;;;25.52;;
21010;SDS011;10663;42.714;23.274;2023-02-28T04:14:21;34.15;;;22.40;;
21010;SDS011;10663;42.714;23.274;2023-02-28T04:15:52;36.70;;;24.13;;
21010;SDS011;10663;42.714;23.274;2023-02-28T04:17:23;35.13;;;23.42;;
21010;SDS011;10663;42.714;23.274;2023-02-28T04:18:55;37.33;;;23.63;;
21010;SDS011;10663;42.714;23.274;2023-02-28T04:20:32;36.58;;;23.27;;
21010;SDS011;10663;42.714;23.274;2023-02-28T04:22:03;36.63;;;23.53;;
21010;SDS011;10663;42.714;23.274;2023-02-28T04:23:33;32.78;;;22.50;;
21010;SDS011;10663;42.714;23.274;2023-02-28T04:25:04;41.70;;;27.98;;
21010;SDS011;10663;42.714;23.274;2023-02-28T04:26:36;59.40;;;43.72;;
21010;SDS011;10663;42.714;23.274;2023-02-28T04:28:07;49.75;;;35.55;;
21010;SDS011;10663;42.714;23.274;2023-02-28T04:29:38;38.20;;;27.77;;
21010;SDS011;10663;42.714;23.274;2023-02-28T04:31:09;37.90;;;27.38;;
21010;SDS011;10663;42.714;23.274;2023-02-28T04:32:40;33.60;;;23.70;;
21010;SDS011;10663;42.714;23.274;2023-02-28T04:34:10;33.83;;;23.88;;
21010;SDS011;10663;42.714;23.274;2023-02-28T04:35:41;34.83;;;23.88;;
21010;SDS011;10663;42.714;23.274;2023-02-28T04:37:12;35.15;;;24.20;;
21010;SDS011;10663;42.714;23.274;2023-02-28T04:38:43;39.80;;;26.25;;
21010;SDS011;10663;42.714;23.274;2023-02-28T04:40:15;31.52;;;21.67;;
21010;SDS011;10663;42.714;23.274;2023-02-28T04:41:46;36.10;;;24.52;;
21010;SDS011;10663;42.714;23.274;2023-02-28T04:43:17;35.63;;;23.85;;
21010;SDS011;10663;42.714;23.274;2023-02-28T04:44:48;38.03;;;24.48;;
21010;SDS011;10663;42.714;23.274;2023-02-28T04:46:19;34.80;;;23.30;;
21010;SDS011;10663;42.714;23.274;2023-02-28T04:47:50;34.85;;;22.85;;
21010;SDS011;10663;42.714;23.274;2023-02-28T04:49:20;36.15;;;22.38;;
21010;SDS011;10663;42.714;23.274;2023-02-28T04:50:51;33.25;;;21.10;;
21010;SDS011;10663;42.714;23.274;2023-02-28T04:52:22;35.20;;;21.73;;
21010;SDS011;10663;42.714;23.274;2023-02-28T04:53:53;35.13;;;21.58;;
21010;SDS011;10663;42.714;23.274;2023-02-28T04:55:24;35.90;;;22.42;;
21010;SDS011;10663;42.714;23.274;2023-02-28T04:56:55;35.67;;;22.67;;
21010;SDS011;10663;42.714;23.274;2023-02-28T04:58:27;30.38;;;20.67;;
21010;SDS011;10663;42.714;23.274;2023-02-28T04:59:58;33.17;;;21.15;;
21010;SDS011;10663;42.714;23.274;2023-02-28T05:01:32;33.50;;;21.17;;
21010;SDS011;10663;42.714;23.274;2023-02-28T05:03:05;31.70;;;20.58;;
21010;SDS011;10663;42.714;23.274;2023-02-28T05:04:36;31.38;;;20.48;;
21010;SDS011;10663;42.714;23.274;2023-02-28T05:06:07;29.98;;;19.95;;
21010;SDS011;10663;42.714;23.274;2023-02-28T05:07:38;29.08;;;18.30;;
21010;SDS011;10663;42.714;23.274;2023-02-28T05:09:09;32.03;;;20.25;;
21010;SDS011;10663;42.714;23.274;2023-02-28T05:10:44;30.65;;;20.27;;
21010;SDS011;10663;42.714;23.274;2023-02-28T05:12:15;31.33;;;19.20;;
21010;SDS011;10663;42.714;23.274;2023-02-28T05:13:46;35.55;;;22.48;;
21010;SDS011;10663;42.714;23.274;2023-02-28T05:15:17;30.70;;;20.67;;
21010;SDS011;10663;42.714;23.274;2023-02-28T05:16:48;31.30;;;20.20;;
21010;SDS011;10663;42.714;23.274;2023-02-28T05:18:19;31.87;;;20.23;;
21010;SDS011;10663;42.714;23.274;2023-02-28T05:19:50;28.63;;;20.20;;
21010;SDS011;10663;42.714;23.274;2023-02-28T05:21:22;34.17;;;21.42;;
21010;SDS011;10663;42.714;23.274;2023-02-28T05:22:58;39.90;;;22.95;;
21010;SDS011;10663;42.714;23.274;2023-02-28T05:24:31;40.60;;;25.35;;
21010;SDS011;10663;42.714;23.274;2023-02-28T05:26:02;43.78;;;24.83;;
21010;SDS011;10663;42.714;23.274;2023-02-28T05:27:33;44.95;;;27.10;;
21010;SDS011;10663;42.714;23.274;2023-02-28T05:29:04;41.80;;;25.30;;
21010;SDS011;10663;42.714;23.274;2023-02-28T05:30:35;40.10;;;24.33;;
21010;SDS011;10663;42.714;23.274;2023-02-28T05:32:06;42.67;;;25.15;;
21010;SDS011;10663;42.714;23.274;2023-02-28T05:33:37;41.13;;;25.58;;
21010;SDS011;10663;42.714;23.274;2023-02-28T05:35:08;43.47;;;26.10;;
21010;SDS011;10663;42.714;23.274;2023-02-28T05:36:41;43.90;;;26.23;;
21010;SDS011;10663;42.714;23.274;2023-02-28T05:38:12;43.17;;;26.70;;
21010;SDS011;10663;42.714;23.274;2023-02-28T05:39:42;42.17;;;25.92;;
21010;SDS011;10663;42.714;23.274;2023-02-28T05:41:13;40.92;;;25.35;;
21010;SDS011;10663;42.714;23.274;2023-02-28T05:42:45;40.33;;;25.48;;
21010;SDS011;10663;42.714;23.274;2023-02-28T05:44:16;44.95;;;26.77;;
21010;SDS011;10663;42.714;23.274;2023-02-28T05:45:47;43.30;;;26.92;;
21010;SDS011;10663;42.714;23.274;2023-02-28T05:47:17;45.47;;;25.47;;
21010;SDS011;10663;42.714;23.274;2023-02-28T05:48:48;40.07;;;25.87;;
21010;SDS011;10663;42.714;23.274;2023-02-28T05:50:19;42.30;;;25.08;;
21010;SDS011;10663;42.714;23.274;2023-02-28T05:51:50;47.23;;;27.70;;
21010;SDS011;10663;42.714;23.274;2023-02-28T05:53:21;44.40;;;26.07;;
21010;SDS011;10663;42.714;23.274;2023-02-28T05:54:52;44.97;;;26.20;;
21010;SDS011;10663;42.714;23.274;2023-02-28T05:56:23;45.85;;;27.25;;
21010;SDS011;10663;42.714;23.274;2023-02-28T05:57:53;43.67;;;27.63;;
21010;SDS011;10663;42.714;23.274;2023-02-28T05:59:25;42.83;;;25.52;;
21010;SDS011;10663;42.714;23.274;2023-02-28T06:00:59;49.40;;;27.27;;
21010;SDS011;10663;42.714;23.274;2023-02-28T06:02:31;48.95;;;28.20;;
21010;SDS011;10663;42.714;23.274;2023-02-28T06:04:03;45.15;;;27.35;;
21010;SDS011;10663;42.714;23.274;2023-02-28T06:05:35;47.40;;;28.73;;
21010;SDS011;10663;42.714;23.274;2023-02-28T06:07:06;43.50;;;27.20;;
21010;SDS011;10663;42.714;23.274;2023-02-28T06:08:37;46.10;;;27.67;;
21010;SDS011;10663;42.714;23.274;2023-02-28T06:10:08;45.42;;;26.98;;
21010;SDS011;10663;42.714;23.274;2023-02-28T06:11:41;44.28;;;26.40;;
21010;SDS011;10663;42.714;23.274;2023-02-28T06:13:12;43.30;;;27.08;;
21010;SDS011;10663;42.714;23.274;2023-02-28T06:14:43;43.75;;;27.30;;
21010;SDS011;10663;42.714;23.274;2023-02-28T06:16:13;47.28;;;29.10;;
21010;SDS011;10663;42.714;23.274;2023-02-28T06:17:44;45.83;;;27.95;;
21010;SDS011;10663;42.714;23.274;2023-02-28T06:19:15;51.80;;;29.80;;
21010;SDS011;10663;42.714;23.274;2023-02-28T06:21:04;49.47;;;31.05;;
21010;SDS011;10663;42.714;23.274;2023-02-28T06:22:36;58.45;;;32.20;;
21010;SDS011;10663;42.714;23.274;2023-02-28T06:24:07;55.00;;;30.55;;
21010;SDS011;10663;42.714;23.274;2023-02-28T06:25:44;55.88;;;31.45;;
21010;SDS011;10663;42.714;23.274;2023-02-28T06:27:15;53.47;;;30.77;;
21010;SDS011;10663;42.714;23.274;2023-02-28T06:28:46;52.40;;;30.05;;
21010;SDS011;10663;42.714;23.274;2023-02-28T06:30:17;57.60;;;31.52;;
21010;SDS011;10663;42.714;23.274;2023-02-28T06:31:48;58.83;;;34.38;;
21010;SDS011;10663;42.714;23.274;2023-02-28T06:33:19;67.80;;;39.55;;
21010;SDS011;10663;42.714;23.274;2023-02-28T06:34:50;66.45;;;38.40;;
21010;SDS011;10663;42.714;23.274;2023-02-28T06:36:21;60.78;;;36.63;;
21010;SDS011;10663;42.714;23.274;2023-02-28T06:37:52;62.25;;;37.88;;
21010;SDS011;10663;42.714;23.274;2023-02-28T06:39:23;61.20;;;35.05;;
21010;SDS011;10663;42.714;23.274;2023-02-28T06:40:57;55.92;;;31.92;;
21010;SDS011;10663;42.714;23.274;2023-02-28T06:42:29;54.72;;;33.30;;
21010;SDS011;10663;42.714;23.274;2023-02-28T06:44:01;55.42;;;32.90;;
21010;SDS011;10663;42.714;23.274;2023-02-28T06:45:31;52.93;;;31.77;;
21010;SDS011;10663;42.714;23.274;2023-02-28T06:47:03;53.20;;;32.30;;
21010;SDS011;10663;42.714;23.274;2023-02-28T06:48:35;61.88;;;34.67;;
21010;SDS011;10663;42.714;23.274;2023-02-28T06:50:07;61.15;;;37.25;;
21010;SDS011;10663;42.714;23.274;2023-02-28T06:51:42;59.25;;;34.28;;
21010;SDS011;10663;42.714;23.274;2023-02-28T06:53:17;60.92;;;36.50;;
21010;SDS011;10663;42.714;23.274;2023-02-28T06:54:48;61.33;;;36.30;;
21010;SDS011;10663;42.714;23.274;2023-02-28T06:56:30;62.38;;;34.67;;
21010;SDS011;10663;42.714;23.274;2023-02-28T06:58:01;58.80;;;34.72;;
21010;SDS011;10663;42.714;23.274;2023-02-28T06:59:31;56.40;;;34.50;;
21010;SDS011;10663;42.714;23.274;2023-02-28T07:01:03;57.28;;;33.30;;
21010;SDS011;10663;42.714;23.274;2023-02-28T07:02:35;57.95;;;34.42;;
21010;SDS011;10663;42.714;23.274;2023-02-28T07:04:06;62.33;;;35.53;;
21010;SDS011;10663;42.714;23.274;2023-02-28T07:05:38;62.33;;;35.97;;
21010;SDS011;10663;42.714;23.274;2023-02-28T07:07:09;62.27;;;35.27;;
21010;SDS011;10663;42.714;23.274;2023-02-28T07:08:40;60.10;;;34.70;;
21010;SDS011;10663;42.714;23.274;2023-02-28T07:10:11;58.17;;;34.75;;
21010;SDS011;10663;42.714;23.274;2023-02-28T07:11:43;61.47;;;35.40;;
21010;SDS011;10663;42.714;23.274;2023-02-28T07:13:14;64.93;;;38.47;;
21010;SDS011;10663;42.714;23.274;2023-02-28T07:14:44;62.20;;;35.72;;
21010;SDS011;10663;42.714;23.274;2023-02-28T07:16:15;63.95;;;37.45;;
21010;SDS011;10663;42.714;23.274;2023-02-28T07:17:46;67.70;;;38.75;;
21010;SDS011;10663;42.714;23.274;2023-02-28T07:19:17;66.97;;;38.58;;
21010;SDS011;10663;42.714;23.274;2023-02-28T07:20:48;62.55;;;38.33;;
21010;SDS011;10663;42.714;23.274;2023-02-28T07:22:19;67.05;;;38.28;;
21010;SDS011;10663;42.714;23.274;2023-02-28T07:23:50;62.45;;;38.30;;
21010;SDS011;10663;42.714;23.274;2023-02-28T07:25:22;63.55;;;37.83;;
21010;SDS011;10663;42.714;23.274;2023-02-28T07:26:55;66.78;;;38.97;;
21010;SDS011;10663;42.714;23.274;2023-02-28T07:28:26;65.23;;;37.40;;
21010;SDS011;10663;42.714;23.274;2023-02-28T07:29:57;62.40;;;35.28;;
21010;SDS011;10663;42.714;23.274;2023-02-28T07:31:31;61.65;;;35.92;;
21010;SDS011;10663;42.714;23.274;2023-02-28T07:33:02;59.40;;;36.25;;
21010;SDS011;10663;42.714;23.274;2023-02-28T07:34:34;62.33;;;36.90;;
21010;SDS011;10663;42.714;23.274;2023-02-28T07:36:06;62.45;;;35.88;;
21010;SDS011;10663;42.714;23.274;2023-02-28T07:37:38;67.03;;;40.47;;
21010;SDS011;10663;42.714;23.274;2023-02-28T07:39:13;62.17;;;38.45;;
21010;SDS011;10663;42.714;23.274;2023-02-28T07:40:43;66.15;;;38.47;;
21010;SDS011;10663;42.714;23.274;2023-02-28T07:42:14;63.83;;;37.90;;
21010;SDS011;10663;42.714;23.274;2023-02-28T07:43:45;63.97;;;37.50;;
21010;SDS011;10663;42.714;23.274;2023-02-28T07:45:17;61.30;;;36.28;;
21010;SDS011;10663;42.714;23.274;2023-02-28T07:46:48;60.00;;;36.80;;
21010;SDS011;10663;42.714;23.274;2023-02-28T07:48:18;64.97;;;37.45;;
21010;SDS011;10663;42.714;23.274;2023-02-28T07:49:49;60.08;;;36.70;;
21010;SDS011;10663;42.714;23.274;2023-02-28T07:51:20;60.70;;;35.63;;
21010;SDS011;10663;42.714;23.274;2023-02-28T07:52:52;59.78;;;35.63;;
21010;SDS011;10663;42.714;23.274;2023-02-28T07:54:23;56.40;;;35.00;;
21010;SDS011;10663;42.714;23.274;2023-02-28T07:55:55;59.22;;;34.85;;
21010;SDS011;10663;42.714;23.274;2023-02-28T07:57:26;55.83;;;33.65;;
21010;SDS011;10663;42.714;23.274;2023-02-28T07:58:57;57.20;;;35.30;;
21010;SDS011;10663;42.714;23.274;2023-02-28T08:00:28;54.42;;;32.95;;
21010;SDS011;10663;42.714;23.274;2023-02-28T08:01:59;56.72;;;33.20;;
21010;SDS011;10663;42.714;23.274;2023-02-28T08:03:30;54.65;;;33.40;;
21010;SDS011;10663;42.714;23.274;2023-02-28T08:05:01;52.60;;;33.22;;
21010;SDS011;10663;42.714;23.274;2023-02-28T08:06:32;56.87;;;36.00;;
21010;SDS011;10663;42.714;23.274;2023-02-28T08:08:03;59.23;;;37.50;;
21010;SDS011;10663;42.714;23.274;2023-02-28T08:09:34;57.03;;;33.70;;
21010;SDS011;10663;42.714;23.274;2023-02-28T08:11:05;51.70;;;32.75;;
21010;SDS011;10663;42.714;23.274;2023-02-28T08:12:36;51.42;;;33.13;;
21010;SDS011;10663;42.714;23.274;2023-02-28T08:14:07;51.03;;;33.17;;
21010;SDS011;10663;42.714;23.274;2023-02-28T08:15:38;52.10;;;32.75;;
21010;SDS011;10663;42.714;23.274;2023-02-28T08:17:11;55.20;;;33.17;;
21010;SDS011;10663;42.714;23.274;2023-02-28T08:18:42;52.78;;;32.45;;
21010;SDS011;10663;42.714;23.274;2023-02-28T08:20:14;52.88;;;33.72;;
21010;SDS011;10663;42.714;23.274;2023-02-28T08:21:45;51.72;;;33.38;;
21010;SDS011;10663;42.714;23.274;2023-02-28T08:23:16;53.90;;;33.22;;
21010;SDS011;10663;42.714;23.274;2023-02-28T08:24:47;50.15;;;33.53;;
21010;SDS011;10663;42.714;23.274;2023-02-28T08:26:18;54.38;;;35.47;;
21010;SDS011;10663;42.714;23.274;2023-02-28T08:27:52;52.33;;;34.40;;
21010;SDS011;10663;42.714;23.274;2023-02-28T08:29:23;62.08;;;39.22;;
21010;SDS011;10663;42.714;23.274;2023-02-28T08:30:54;69.35;;;41.70;;
21010;SDS011;10663;42.714;23.274;2023-02-28T08:32:25;57.50;;;38.20;;
21010;SDS011;10663;42.714;23.274;2023-02-28T08:33:56;60.20;;;38.22;;
21010;SDS011;10663;42.714;23.274;2023-02-28T08:35:29;57.97;;;37.03;;
21010;SDS011;10663;42.714;23.274;2023-02-28T08:37:00;59.15;;;37.85;;
21010;SDS011;10663;42.714;23.274;2023-02-28T08:38:30;54.27;;;35.27;;
21010;SDS011;10663;42.714;23.274;2023-02-28T08:40:01;57.20;;;35.10;;
21010;SDS011;10663;42.714;23.274;2023-02-28T08:41:34;53.65;;;32.72;;
21010;SDS011;10663;42.714;23.274;2023-02-28T08:43:05;52.15;;;33.13;;
21010;SDS011;10663;42.714;23.274;2023-02-28T08:44:36;52.67;;;32.53;;
21010;SDS011;10663;42.714;23.274;2023-02-28T08:46:07;52.25;;;33.35;;
21010;SDS011;10663;42.714;23.274;2023-02-28T08:47:41;51.33;;;33.55;;
21010;SDS011;10663;42.714;23.274;2023-02-28T08:49:12;50.85;;;31.55;;
21010;SDS011;10663;42.714;23.274;2023-02-28T08:50:43;57.75;;;33.25;;
21010;SDS011;10663;42.714;23.274;2023-02-28T08:52:14;49.60;;;30.42;;
21010;SDS011;10663;42.714;23.274;2023-02-28T08:53:45;51.83;;;32.17;;
21010;SDS011;10663;42.714;23.274;2023-02-28T08:55:16;51.38;;;32.38;;
21010;SDS011;10663;42.714;23.274;2023-02-28T08:56:47;48.97;;;31.10;;
21010;SDS011;10663;42.714;23.274;2023-02-28T08:58:17;52.17;;;33.72;;
21010;SDS011;10663;42.714;23.274;2023-02-28T08:59:48;48.95;;;32.08;;
21010;SDS011;10663;42.714;23.274;2023-02-28T09:01:20;49.60;;;31.50;;
21010;SDS011;10663;42.714;23.274;2023-02-28T09:02:53;49.67;;;32.47;;
21010;SDS011;10663;42.714;23.274;2023-02-28T09:04:24;51.03;;;32.75;;
21010;SDS011;10663;42.714;23.274;2023-02-28T09:05:57;52.40;;;31.58;;
21010;SDS011;10663;42.714;23.274;2023-02-28T09:07:29;51.08;;;32.88;;
21010;SDS011;10663;42.714;23.274;2023-02-28T09:09:00;49.20;;;31.63;;
21010;SDS011;10663;42.714;23.274;2023-02-28T09:10:31;48.25;;;31.40;;
21010;SDS011;10663;42.714;23.274;2023-02-28T09:12:02;48.00;;;31.30;;
21010;SDS011;10663;42.714;23.274;2023-02-28T09:13:34;51.47;;;32.63;;
21010;SDS011;10663;42.714;23.274;2023-02-28T09:15:05;46.53;;;30.80;;
21010;SDS011;10663;42.714;23.274;2023-02-28T09:16:36;49.35;;;33.35;;
21010;SDS011;10663;42.714;23.274;2023-02-28T09:18:07;53.38;;;33.10;;
21010;SDS011;10663;42.714;23.274;2023-02-28T09:19:38;49.55;;;32.65;;
21010;SDS011;10663;42.714;23.274;2023-02-28T09:21:10;48.72;;;31.13;;
21010;SDS011;10663;42.714;23.274;2023-02-28T09:22:47;47.38;;;31.42;;
21010;SDS011;10663;42.714;23.274;2023-02-28T09:24:18;53.85;;;34.70;;
21010;SDS011;10663;42.714;23.274;2023-02-28T09:25:52;53.30;;;34.03;;
21010;SDS011;10663;42.714;23.274;2023-02-28T09:27:24;52.88;;;34.17;;
21010;SDS011;10663;42.714;23.274;2023-02-28T09:28:55;50.38;;;33.40;;
21010;SDS011;10663;42.714;23.274;2023-02-28T09:30:26;55.80;;;33.72;;
21010;SDS011;10663;42.714;23.274;2023-02-28T09:32:01;54.85;;;35.00;;
21010;SDS011;10663;42.714;23.274;2023-02-28T09:33:32;52.65;;;33.33;;
21010;SDS011;10663;42.714;23.274;2023-02-28T09:35:04;52.58;;;34.78;;
21010;SDS011;10663;42.714;23.274;2023-02-28T09:36:35;51.70;;;34.08;;
21010;SDS011;10663;42.714;23.274;2023-02-28T09:38:09;52.67;;;34.38;;
21010;SDS011;10663;42.714;23.274;2023-02-28T09:39:40;57.72;;;35.80;;
21010;SDS011;10663;42.714;23.274;2023-02-28T09:41:25;49.90;;;33.33;;
21010;SDS011;10663;42.714;23.274;2023-02-28T09:43:01;55.72;;;33.92;;
21010;SDS011;10663;42.714;23.274;2023-02-28T09:44:34;51.65;;;32.35;;
21010;SDS011;10663;42.714;23.274;2023-02-28T09:47:59;50.72;;;34.45;;
21010;SDS011;10663;42.714;23.274;2023-02-28T09:49:37;50.83;;;33.45;;
21010;SDS011;10663;42.714;23.274;2023-02-28T09:51:16;50.50;;;33.67;;
21010;SDS011;10663;42.714;23.274;2023-02-28T09:52:49;49.58;;;32.53;;
21010;SDS011;10663;42.714;23.274;2023-02-28T09:54:21;52.05;;;32.42;;
21010;SDS011;10663;42.714;23.274;2023-02-28T09:55:55;48.28;;;32.92;;
21010;SDS011;10663;42.714;23.274;2023-02-28T09:57:38;47.58;;;32.15;;
21010;SDS011;10663;42.714;23.274;2023-02-28T10:01:09;50.40;;;32.30;;
21010;SDS011;10663;42.714;23.274;2023-02-28T10:02:58;47.17;;;31.50;;
21010;SDS011;10663;42.714;23.274;2023-02-28T10:04:50;52.50;;;32.00;;
21010;SDS011;10663;42.714;23.274;2023-02-28T10:06:33;57.57;;;37.97;;
21010;SDS011;10663;42.714;23.274;2023-02-28T10:08:17;53.43;;;35.97;;
21010;SDS011;10663;42.714;23.274;2023-02-28T10:09:57;54.72;;;34.25;;
21010;SDS011;10663;42.714;23.274;2023-02-28T10:11:33;50.75;;;34.10;;
21010;SDS011;10663;42.714;23.274;2023-02-28T10:13:13;54.65;;;36.40;;
21010;SDS011;10663;42.714;23.274;2023-02-28T10:14:54;52.47;;;34.33;;
21010;SDS011;10663;42.714;23.274;2023-02-28T10:16:30;49.25;;;34.33;;
21010;SDS011;10663;42.714;23.274;2023-02-28T10:18:06;52.47;;;35.30;;
21010;SDS011;10663;42.714;23.274;2023-02-28T10:19:47;55.83;;;36.13;;